createdAt,value
2023-05-05T00:01:34.228Z,56.93
2023-05-05T00:04:01.372Z,56.87
2023-05-05T00:06:31.567Z,57.40
2023-05-05T00:08:58.595Z,57.43
2023-05-05T00:11:26.353Z,57.23
2023-05-05T00:13:53.577Z,57.21
2023-05-05T00:16:20.829Z,56.94
2023-05-05T00:18:48.196Z,57.32
2023-05-05T00:21:15.809Z,57.37
2023-05-05T00:23:42.824Z,57.03
2023-05-05T00:26:09.927Z,57.12
2023-05-05T00:28:38.358Z,57.31
2023-05-05T00:31:05.480Z,57.22
2023-05-05T00:33:32.649Z,57.51
2023-05-05T00:35:59.666Z,56.92
2023-05-05T00:38:26.802Z,57.07
2023-05-05T00:40:54.138Z,57.36
2023-05-05T00:43:21.157Z,57.41
2023-05-05T00:45:57.537Z,57.05
2023-05-05T00:48:25.881Z,57.40
2023-05-05T00:50:53.184Z,57.53
2023-05-05T00:53:20.493Z,57.62
2023-05-05T00:55:47.685Z,57.26
2023-05-05T00:58:15.003Z,56.88
2023-05-05T01:00:42.160Z,57.31
2023-05-05T01:03:10.432Z,57.59
2023-05-05T01:06:04.453Z,57.61
2023-05-05T01:08:43.539Z,56.98
2023-05-05T01:11:20.840Z,57.61
2023-05-05T01:14:24.578Z,57.91
2023-05-05T01:17:00.581Z,57.66
2023-05-05T01:20:01.585Z,57.64
2023-05-05T01:22:36.761Z,57.40
2023-05-05T01:25:27.169Z,57.25
2023-05-05T01:28:11.426Z,57.27
2023-05-05T01:31:00.596Z,57.46
2023-05-05T01:33:32.001Z,57.46
2023-05-05T01:36:07.651Z,57.27
2023-05-05T01:38:46.094Z,57.80
2023-05-05T01:41:19.509Z,57.82
2023-05-05T01:43:50.460Z,57.14
2023-05-05T01:46:19.169Z,57.62
2023-05-05T01:48:49.042Z,57.95
2023-05-05T01:51:18.190Z,57.64
2023-05-05T01:53:47.339Z,57.74
2023-05-05T01:56:16.455Z,58.08
2023-05-05T01:58:45.272Z,57.91
2023-05-05T02:01:13.927Z,57.43
2023-05-05T02:03:42.492Z,58.27
2023-05-05T02:06:11.651Z,57.61
2023-05-05T02:08:39.651Z,57.67
2023-05-05T02:11:10.091Z,57.96
2023-05-05T02:13:42.798Z,58.25
2023-05-05T02:16:58.012Z,58.16
2023-05-05T02:20:08.141Z,57.70
2023-05-05T02:23:15.408Z,58.20
2023-05-05T02:26:28.098Z,57.34
2023-05-05T02:29:41.738Z,57.40
2023-05-05T02:32:54.959Z,57.23
2023-05-05T02:36:07.214Z,58.10
2023-05-05T02:39:22.962Z,57.44
2023-05-05T02:42:33.363Z,57.94
2023-05-05T02:45:43.325Z,57.69
2023-05-05T02:48:50.795Z,57.83
2023-05-05T02:51:57.809Z,57.16
2023-05-05T02:55:07.452Z,56.99
2023-05-05T02:58:35.309Z,56.86
2023-05-05T03:01:55.963Z,58.07
2023-05-05T03:05:10.653Z,57.15
2023-05-05T03:08:29.861Z,56.82
2023-05-05T03:11:51.974Z,57.08
2023-05-05T03:15:05.126Z,57.05
2023-05-05T03:18:14.120Z,57.73
2023-05-05T03:21:28.099Z,57.36
2023-05-05T03:24:37.314Z,56.72
2023-05-05T03:27:48.028Z,57.55
2023-05-05T03:30:58.622Z,57.88
2023-05-05T03:34:06.137Z,56.78
2023-05-05T03:37:20.857Z,57.77
2023-05-05T03:40:40.486Z,57.90
2023-05-05T03:43:52.710Z,57.08
2023-05-05T03:46:59.812Z,56.98
2023-05-05T03:50:08.591Z,56.91
2023-05-05T03:53:16.053Z,57.87
2023-05-05T03:56:23.981Z,57.76
2023-05-05T03:59:32.100Z,57.30
2023-05-05T04:02:39.145Z,56.99
2023-05-05T04:05:46.534Z,56.69
2023-05-05T04:08:53.704Z,57.16
2023-05-05T04:12:00.701Z,56.69
2023-05-05T04:15:07.799Z,57.01
2023-05-05T04:18:15.166Z,57.23
2023-05-05T04:21:22.318Z,57.19
2023-05-05T04:24:29.607Z,56.95
2023-05-05T04:27:36.571Z,57.30
2023-05-05T04:30:43.664Z,56.96
2023-05-05T04:33:50.737Z,56.40
2023-05-05T04:36:37.745Z,56.39
2023-05-05T04:39:07.203Z,56.47
2023-05-05T04:41:34.852Z,56.64
2023-05-05T04:44:02.121Z,56.84
2023-05-05T04:46:29.405Z,56.00
2023-05-05T04:48:58.564Z,56.53
2023-05-05T04:51:31.167Z,56.20
2023-05-05T04:53:58.647Z,56.11
2023-05-05T04:56:30.369Z,55.97
2023-05-05T04:58:57.639Z,56.14
2023-05-05T05:01:24.758Z,56.14
2023-05-05T05:03:51.955Z,56.14
2023-05-05T05:06:19.188Z,55.63
2023-05-05T05:08:46.168Z,55.50
2023-05-05T05:11:14.415Z,55.84
2023-05-05T05:13:41.887Z,55.62
2023-05-05T05:16:09.081Z,55.64
2023-05-05T05:18:36.554Z,55.14
2023-05-05T05:21:03.968Z,55.11
2023-05-05T05:23:31.591Z,55.12
2023-05-05T05:25:58.860Z,54.86
2023-05-05T05:28:27.038Z,54.17
2023-05-05T05:30:58.206Z,54.46
2023-05-05T05:33:25.961Z,53.96
2023-05-05T05:35:55.331Z,54.33
2023-05-05T05:38:22.322Z,53.94
2023-05-05T05:44:45.163Z,53.11
2023-05-05T05:47:52.124Z,52.75
2023-05-05T05:50:59.139Z,52.72
2023-05-05T05:54:06.580Z,52.54
2023-05-05T05:57:13.950Z,52.85
2023-05-05T06:00:20.906Z,52.09
2023-05-05T06:03:34.692Z,51.50
2023-05-05T06:06:41.809Z,50.76
2023-05-05T06:09:48.693Z,51.17
2023-05-05T06:12:55.751Z,50.43
2023-05-05T06:16:02.971Z,49.98
2023-05-05T06:19:09.906Z,50.02
2023-05-05T06:22:17.871Z,50.72
2023-05-05T06:25:25.066Z,50.49
2023-05-05T06:28:32.493Z,49.80
2023-05-05T06:31:39.585Z,50.13
2023-05-05T06:34:46.535Z,49.43
2023-05-05T06:37:53.566Z,49.57
2023-05-05T06:41:00.558Z,48.20
2023-05-05T06:44:07.538Z,49.01
2023-05-05T06:47:14.473Z,48.35
2023-05-05T06:50:21.235Z,48.01
2023-05-05T06:53:28.496Z,48.73
2023-05-05T06:56:35.289Z,48.48
2023-05-05T06:59:42.326Z,48.29
2023-05-05T07:02:49.286Z,48.98
2023-05-05T07:05:56.334Z,47.54
2023-05-05T07:09:03.372Z,48.81
2023-05-05T07:12:10.359Z,47.73
2023-05-05T07:15:27.398Z,47.92
2023-05-05T07:18:36.715Z,46.64
2023-05-05T07:21:43.712Z,46.59
2023-05-05T07:24:51.717Z,47.06
2023-05-05T07:27:59.290Z,47.19
2023-05-05T07:31:06.223Z,46.80
2023-05-05T07:34:13.196Z,47.04
2023-05-05T07:37:20.235Z,46.12
2023-05-05T07:40:27.772Z,45.93
2023-05-05T07:43:34.971Z,46.51
2023-05-05T07:46:41.845Z,45.99
2023-05-05T07:49:49.517Z,45.75
2023-05-05T07:53:02.358Z,45.29
2023-05-05T07:56:21.757Z,45.72
2023-05-05T07:59:28.682Z,44.55
2023-05-05T08:02:35.692Z,45.57
2023-05-05T08:05:42.572Z,45.19
2023-05-05T08:08:49.685Z,44.62
2023-05-05T08:11:56.669Z,45.22
2023-05-05T08:15:03.625Z,45.48
2023-05-05T08:18:12.451Z,44.44
2023-05-05T08:21:19.521Z,45.10
2023-05-05T08:24:26.361Z,44.28
2023-05-05T08:27:33.449Z,44.92
2023-05-05T08:30:40.389Z,44.31
2023-05-05T08:33:27.728Z,43.48
2023-05-05T08:36:14.779Z,44.33
2023-05-05T08:39:04.864Z,44.29
2023-05-05T08:41:53.271Z,43.48
2023-05-05T08:44:40.208Z,43.86
2023-05-05T08:47:30.769Z,42.88
2023-05-05T08:50:19.822Z,43.16
2023-05-05T08:53:12.814Z,43.30
2023-05-05T08:56:15.275Z,42.54
2023-05-05T08:59:03.208Z,42.43
2023-05-05T09:01:52.444Z,42.41
2023-05-05T09:04:39.759Z,42.19
2023-05-05T09:07:26.932Z,42.61
2023-05-05T09:10:14.152Z,41.99
2023-05-05T09:13:01.669Z,41.49
2023-05-05T09:15:48.633Z,41.89
2023-05-05T09:18:36.075Z,41.99
2023-05-05T09:21:39.353Z,41.70
2023-05-05T09:24:32.981Z,41.61
2023-05-05T09:27:20.184Z,41.76
2023-05-05T09:30:09.356Z,41.37
2023-05-05T09:33:10.447Z,40.91
2023-05-05T09:36:14.673Z,40.78
2023-05-05T09:39:01.712Z,40.72
2023-05-05T09:41:59.561Z,40.47
2023-05-05T09:44:54.562Z,40.24
2023-05-05T09:47:41.834Z,40.05
2023-05-05T09:50:29.417Z,39.73
2023-05-05T09:53:18.231Z,39.99
2023-05-05T09:56:15.789Z,40.07
2023-05-05T09:59:02.887Z,39.80
2023-05-05T10:01:50.193Z,39.16
2023-05-05T10:04:50.520Z,39.69
2023-05-05T10:07:47.090Z,39.82
2023-05-05T10:10:36.147Z,39.15
2023-05-05T10:13:23.297Z,39.01
2023-05-05T10:16:17.585Z,37.73
2023-05-05T10:19:06.532Z,37.68
2023-05-05T10:21:59.943Z,37.99
2023-05-05T10:24:57.611Z,36.77
2023-05-05T10:27:47.972Z,36.77
2023-05-05T10:30:43.551Z,36.76
2023-05-05T10:33:40.215Z,35.86
2023-05-05T10:36:27.963Z,36.38
2023-05-05T10:39:18.961Z,36.23
2023-05-05T10:42:07.085Z,36.02
2023-05-05T10:44:54.308Z,36.19
2023-05-05T10:47:43.080Z,35.71
2023-05-05T10:50:47.042Z,35.75
2023-05-05T10:53:42.176Z,34.89
2023-05-05T10:56:37.270Z,35.50
2023-05-05T10:59:56.313Z,35.49
2023-05-05T11:02:47.921Z,34.79
2023-05-05T11:05:39.398Z,34.47
2023-05-05T11:08:45.405Z,34.88
2023-05-05T11:11:33.671Z,34.84
2023-05-05T11:14:39.999Z,34.41
2023-05-05T11:18:07.482Z,34.32
2023-05-05T11:21:00.927Z,35.07
2023-05-05T11:23:48.552Z,34.55
2023-05-05T11:26:37.149Z,34.52
2023-05-05T11:29:24.810Z,34.37
2023-05-05T11:32:38.006Z,33.96
2023-05-05T11:35:26.130Z,34.22
2023-05-05T11:38:26.813Z,33.04
2023-05-05T11:41:21.743Z,33.29
2023-05-05T11:44:08.823Z,33.28
2023-05-05T11:46:56.303Z,32.40
2023-05-05T11:49:57.227Z,33.21
2023-05-05T11:52:46.385Z,32.67
2023-05-05T11:55:39.091Z,32.26
2023-05-05T11:58:38.665Z,32.62
2023-05-05T12:01:29.192Z,32.67
2023-05-05T12:04:16.468Z,33.28
2023-05-05T12:07:05.129Z,33.43
2023-05-05T12:09:52.921Z,33.34
2023-05-05T12:12:40.224Z,33.47
2023-05-05T12:15:28.392Z,33.40
2023-05-05T12:18:15.391Z,32.82
2023-05-05T12:21:02.666Z,33.28
2023-05-05T12:23:58.152Z,33.91
2023-05-05T12:26:46.646Z,33.79
2023-05-05T12:29:33.649Z,34.18
2023-05-05T12:32:21.079Z,33.08
2023-05-05T12:35:09.143Z,32.73
2023-05-05T12:37:56.569Z,32.87
2023-05-05T12:41:06.447Z,33.36
2023-05-05T12:43:55.285Z,33.49
2023-05-05T12:46:42.936Z,34.19
2023-05-05T12:49:30.108Z,33.53
2023-05-05T12:52:17.214Z,33.46
2023-05-05T12:55:19.034Z,33.14
2023-05-05T12:58:21.767Z,33.97
2023-05-05T13:01:28.569Z,33.24
2023-05-05T13:04:32.396Z,34.11
2023-05-05T13:07:35.928Z,33.19
2023-05-05T13:10:28.512Z,33.73
2023-05-05T13:13:16.349Z,33.96
2023-05-05T13:16:03.542Z,33.84
2023-05-05T13:18:50.597Z,32.68
2023-05-05T13:21:37.646Z,33.18
2023-05-05T13:24:37.996Z,32.60
2023-05-05T13:27:29.793Z,32.54
2023-05-05T13:30:16.923Z,32.79
2023-05-05T13:33:03.907Z,33.41
2023-05-05T13:35:51.047Z,33.02
2023-05-05T13:38:38.156Z,33.41
2023-05-05T13:41:25.236Z,32.35
2023-05-05T13:44:12.263Z,32.20
2023-05-05T13:46:59.605Z,33.18
2023-05-05T13:49:46.738Z,33.37
2023-05-05T13:52:33.709Z,32.06
2023-05-05T13:55:20.887Z,32.18
2023-05-05T13:58:08.533Z,32.59
2023-05-05T14:00:55.968Z,32.69
2023-05-05T14:03:43.275Z,32.84
2023-05-05T14:06:30.241Z,32.80
2023-05-05T14:09:17.600Z,32.19
2023-05-05T14:12:04.609Z,32.73
2023-05-05T14:14:51.723Z,32.07
2023-05-05T14:17:38.773Z,32.93
2023-05-05T14:20:26.940Z,32.25
2023-05-05T14:23:17.168Z,32.43
2023-05-05T14:26:04.442Z,32.41
2023-05-05T14:28:51.352Z,31.66
2023-05-05T14:31:38.649Z,31.52
2023-05-05T14:34:25.722Z,32.43
2023-05-05T14:37:12.858Z,32.40
2023-05-05T14:39:59.950Z,31.73
2023-05-05T14:42:47.126Z,32.46
2023-05-05T14:45:34.256Z,31.05
2023-05-05T14:48:21.382Z,31.62
2023-05-05T14:51:08.808Z,31.72
2023-05-05T14:53:55.885Z,32.42
2023-05-05T14:56:42.993Z,32.10
2023-05-05T14:59:30.163Z,32.81
2023-05-05T15:02:17.156Z,32.62
2023-05-05T15:05:04.411Z,32.44
2023-05-05T15:07:51.403Z,32.94
2023-05-05T15:10:38.585Z,32.27
2023-05-05T15:13:25.671Z,32.25
2023-05-05T15:16:12.797Z,33.04
2023-05-05T15:18:59.922Z,32.47
2023-05-05T15:21:47.279Z,31.72
2023-05-05T15:24:34.269Z,32.12
2023-05-05T15:27:21.426Z,31.67
2023-05-05T15:30:08.344Z,31.95
2023-05-05T15:32:55.800Z,32.01
2023-05-05T15:35:42.921Z,30.85
2023-05-05T15:38:30.180Z,30.59
2023-05-05T15:41:17.428Z,30.75
2023-05-05T15:44:04.633Z,31.35
2023-05-05T15:46:52.245Z,30.60
2023-05-05T15:49:39.359Z,30.82
2023-05-05T15:52:26.527Z,31.08
2023-05-05T15:55:13.631Z,30.99
2023-05-05T15:58:01.045Z,30.75
2023-05-05T16:00:48.387Z,30.99
2023-05-05T16:03:35.627Z,30.65
2023-05-05T16:06:23.425Z,30.23
2023-05-05T16:09:10.676Z,29.92
2023-05-05T16:11:57.792Z,30.54
2023-05-05T16:14:44.804Z,31.09
2023-05-05T16:17:31.955Z,30.98
2023-05-05T16:20:19.063Z,31.42
2023-05-05T16:23:06.075Z,30.63
2023-05-05T16:25:53.030Z,30.82
2023-05-05T16:28:40.129Z,30.88
2023-05-05T16:31:27.436Z,30.79
2023-05-05T16:34:14.817Z,29.80
2023-05-05T16:37:01.998Z,30.18
2023-05-05T16:39:49.336Z,30.71
2023-05-05T16:42:36.249Z,30.30
2023-05-05T16:45:23.741Z,31.09
2023-05-05T16:48:10.729Z,31.27
2023-05-05T16:50:57.896Z,30.09
2023-05-05T16:53:46.660Z,29.70
2023-05-05T16:56:35.428Z,29.62
2023-05-05T16:59:22.389Z,30.17
2023-05-05T17:02:09.766Z,30.19
2023-05-05T17:04:56.964Z,30.96
2023-05-05T17:07:44.216Z,31.03
2023-05-05T17:10:34.665Z,29.74
2023-05-05T17:13:21.885Z,31.05
2023-05-05T17:16:09.593Z,30.65
2023-05-05T17:18:56.534Z,30.83
2023-05-05T17:21:43.697Z,31.60
2023-05-05T17:24:30.959Z,30.58
2023-05-05T17:27:18.150Z,31.36
2023-05-05T17:30:05.341Z,31.55
2023-05-05T17:32:52.477Z,31.34
2023-05-05T17:35:39.915Z,31.33
2023-05-05T17:38:27.034Z,31.92
2023-05-05T17:41:14.175Z,32.29
2023-05-05T17:44:01.159Z,31.88
2023-05-05T17:46:48.218Z,32.70
2023-05-05T17:49:35.357Z,33.13
2023-05-05T17:52:22.530Z,32.97
2023-05-05T17:55:10.219Z,33.18
2023-05-05T17:57:57.553Z,33.62
2023-05-05T18:00:44.901Z,33.64
2023-05-05T18:03:31.976Z,33.73
2023-05-05T18:06:19.113Z,33.74
2023-05-05T18:09:06.186Z,34.30
2023-05-05T18:11:53.242Z,34.54
2023-05-05T18:14:40.512Z,34.42
2023-05-05T18:17:27.513Z,34.98
2023-05-05T18:20:14.557Z,35.17
2023-05-05T18:23:01.511Z,35.43
2023-05-05T18:25:48.597Z,35.67
2023-05-05T18:28:35.488Z,35.74
2023-05-05T18:31:22.676Z,35.68
2023-05-05T18:34:11.821Z,36.06
2023-05-05T18:36:59.339Z,35.58
2023-05-05T18:39:46.371Z,36.17
2023-05-05T18:42:33.569Z,36.41
2023-05-05T18:45:20.754Z,36.51
2023-05-05T18:48:08.017Z,36.35
2023-05-05T18:50:56.740Z,36.12
2023-05-05T18:53:43.956Z,36.90
2023-05-05T18:56:31.060Z,36.90
2023-05-05T18:59:18.070Z,37.00
2023-05-05T19:02:05.237Z,37.28
2023-05-05T19:04:52.433Z,37.38
2023-05-05T19:07:39.461Z,37.16
2023-05-05T19:10:27.098Z,37.33
2023-05-05T19:13:14.323Z,37.82
2023-05-05T19:16:01.520Z,37.89
2023-05-05T19:18:48.538Z,38.38
2023-05-05T19:21:35.688Z,38.41
2023-05-05T19:24:22.768Z,38.76
2023-05-05T19:27:09.794Z,38.47
2023-05-05T19:29:56.671Z,38.40
2023-05-05T19:32:43.976Z,39.11
2023-05-05T19:35:31.977Z,39.46
2023-05-05T19:38:19.257Z,38.80
2023-05-05T19:41:06.362Z,40.00
2023-05-05T19:43:53.721Z,39.05
2023-05-05T19:46:40.769Z,39.33
2023-05-05T19:49:28.169Z,39.57
2023-05-05T19:52:15.397Z,40.59
2023-05-05T19:55:02.506Z,40.77
2023-05-05T19:57:49.409Z,40.90
2023-05-05T20:00:36.552Z,40.00
2023-05-05T20:03:23.620Z,40.63
2023-05-05T20:06:10.644Z,40.57
2023-05-05T20:08:57.782Z,40.45
2023-05-05T20:11:45.724Z,40.64
2023-05-05T20:14:32.675Z,41.29
2023-05-05T20:17:19.756Z,40.85
2023-05-05T20:20:06.708Z,41.88
2023-05-05T20:22:53.878Z,41.19
2023-05-05T20:25:40.825Z,41.02
2023-05-05T20:28:27.719Z,41.52
2023-05-05T20:31:14.749Z,41.56
2023-05-05T20:34:01.978Z,41.69
2023-05-05T20:36:48.979Z,41.93
2023-05-05T20:39:36.300Z,40.74
2023-05-05T20:42:23.307Z,42.06
2023-05-05T20:45:10.304Z,41.62
2023-05-05T20:47:57.291Z,41.20
2023-05-05T20:50:44.591Z,41.39
2023-05-05T20:53:32.310Z,41.75
2023-05-05T20:56:19.410Z,41.63
2023-05-05T20:59:06.384Z,42.83
2023-05-05T21:01:53.526Z,43.30
2023-05-05T21:04:40.536Z,42.59
2023-05-05T21:07:27.634Z,42.65
2023-05-05T21:10:14.522Z,42.55
2023-05-05T21:13:01.766Z,42.23
2023-05-05T21:15:49.136Z,42.75
2023-05-05T21:18:36.280Z,42.35
2023-05-05T21:21:23.369Z,43.57
2023-05-05T21:24:10.372Z,42.23
2023-05-05T21:26:57.486Z,43.33
2023-05-05T21:29:44.793Z,42.41
2023-05-05T21:32:32.450Z,43.46
2023-05-05T21:35:19.648Z,43.70
2023-05-05T21:38:06.616Z,43.38
2023-05-05T21:40:53.829Z,42.83
2023-05-05T21:43:41.205Z,43.48
2023-05-05T21:46:28.959Z,43.76
2023-05-05T21:49:16.046Z,43.63
2023-05-05T21:52:04.686Z,44.05
2023-05-05T21:54:51.879Z,43.14
2023-05-05T21:57:39.100Z,43.19
2023-05-05T22:00:26.973Z,43.37
2023-05-05T22:03:14.132Z,43.58
2023-05-05T22:06:01.210Z,43.44
2023-05-05T22:08:48.400Z,44.22
2023-05-05T22:11:35.751Z,44.01
2023-05-05T22:14:22.845Z,43.90
2023-05-05T22:17:09.757Z,43.68
2023-05-05T22:19:56.982Z,44.56
2023-05-05T22:22:44.003Z,43.96
2023-05-05T22:25:31.344Z,44.87
2023-05-05T22:28:18.656Z,44.23
2023-05-05T22:31:06.025Z,44.03
2023-05-05T22:33:53.058Z,45.09
2023-05-05T22:36:40.215Z,45.37
2023-05-05T22:39:27.150Z,44.45
2023-05-05T22:42:14.218Z,44.64
2023-05-05T22:45:01.453Z,45.08
2023-05-05T22:47:48.661Z,44.54
2023-05-05T22:50:35.616Z,45.53
2023-05-05T22:53:22.690Z,44.91
2023-05-05T22:56:09.849Z,44.83
2023-05-05T22:58:56.900Z,44.54
2023-05-05T23:01:43.928Z,44.69
2023-05-05T23:04:31.153Z,45.87
2023-05-05T23:07:18.332Z,44.84
2023-05-05T23:10:09.234Z,45.39
2023-05-05T23:12:56.208Z,44.55
2023-05-05T23:15:43.439Z,45.90
2023-05-05T23:18:30.487Z,45.35
2023-05-05T23:21:17.623Z,45.01
2023-05-05T23:24:04.670Z,45.09
2023-05-05T23:26:51.755Z,44.41
2023-05-05T23:29:39.418Z,45.43
2023-05-05T23:32:26.567Z,45.32
2023-05-05T23:35:13.565Z,45.89
2023-05-05T23:38:00.575Z,45.31
2023-05-05T23:40:47.636Z,44.68
2023-05-05T23:43:34.916Z,44.92
2023-05-05T23:46:22.046Z,44.75
2023-05-05T23:49:09.138Z,45.50
2023-05-05T23:51:56.399Z,44.72
2023-05-05T23:54:43.474Z,45.19
2023-05-05T23:57:30.731Z,44.65
